Time;durP1;ratioP1;P1;durP2;ratioP2;P2;SDS_P1;SDS_P2;PMS_P1;PMS_P2;Temp;Humidity;BMP_temperature;BMP_pressure;BME280_temperature;BME280_humidity;BME280_pressure;Samples;Min_cycle;Max_cycle;Signal;HPM_P1;HPM_P2
2022/04/13 00:00:09;;;;;;;10.20;5.50;;;14.00;99.90;;;;;;5041503;28;20053;-69
2022/04/13 00:02:35;;;;;;;12.68;6.32;;;14.00;99.90;;;;;;5057085;28;20083;-69
2022/04/13 00:05:01;;;;;;;13.35;6.18;;;13.90;99.90;;;;;;5059815;28;20466;-68
2022/04/13 00:07:28;;;;;;;10.45;6.25;;;13.90;99.90;;;;;;5055778;28;20298;-69
2022/04/13 00:09:54;;;;;;;13.98;6.38;;;13.90;99.90;;;;;;5052661;28;20514;-69
2022/04/13 00:12:20;;;;;;;12.32;6.95;;;13.90;99.90;;;;;;5058981;28;20098;-69
2022/04/13 00:14:47;;;;;;;11.03;6.73;;;13.90;99.90;;;;;;5060885;28;20049;-69
2022/04/13 00:17:13;;;;;;;11.48;7.00;;;13.80;99.90;;;;;;5058520;28;20036;-68
2022/04/13 00:19:39;;;;;;;12.17;6.73;;;13.80;99.90;;;;;;5053407;28;20040;-69
2022/04/13 00:22:05;;;;;;;14.38;8.02;;;13.80;99.90;;;;;;5053826;28;20352;-69
2022/04/13 00:24:30;;;;;;;13.60;7.43;;;13.80;99.90;;;;;;5055306;28;20077;-69
2022/04/13 00:26:57;;;;;;;15.53;7.43;;;13.80;99.90;;;;;;5060232;28;20120;-69
2022/04/13 00:29:24;;;;;;;14.10;7.78;;;13.70;99.90;;;;;;5057123;28;20783;-69
2022/04/13 00:31:51;;;;;;;14.18;7.70;;;13.70;99.90;;;;;;5058844;28;20068;-69
2022/04/13 00:34:17;;;;;;;14.02;7.60;;;13.70;99.90;;;;;;5055257;28;20102;-69
2022/04/13 00:36:45;;;;;;;14.75;7.50;;;13.70;99.90;;;;;;5057862;28;20056;-68
2022/04/13 00:39:11;;;;;;;17.90;8.10;;;13.70;99.90;;;;;;5060358;28;20499;-69
2022/04/13 00:41:36;;;;;;;13.38;7.13;;;13.60;99.90;;;;;;5066334;28;20181;-69
2022/04/13 00:44:10;;;;;;;18.07;7.77;;;13.60;99.90;;;;;;5056153;28;20370;-69
2022/04/13 00:46:36;;;;;;;16.08;8.05;;;13.60;99.90;;;;;;5060702;28;20151;-69
2022/04/13 00:49:03;;;;;;;;;;;13.60;99.90;;;;;;5056680;28;20262;-69
2022/04/13 00:51:29;;;;;;;18.00;8.50;;;13.50;99.90;;;;;;5064548;28;19917;-71
2022/04/13 00:53:59;;;;;;;17.27;9.98;;;13.50;99.90;;;;;;5067937;28;20401;-69
2022/04/13 00:56:28;;;;;;;17.38;8.60;;;13.50;99.90;;;;;;5067760;28;20032;-68
2022/04/13 00:59:07;;;;;;;15.23;8.32;;;13.50;99.90;;;;;;5064420;28;20489;-69
2022/04/13 01:01:34;;;;;;;14.48;8.90;;;13.40;99.90;;;;;;5065297;28;20158;-69
2022/04/13 01:04:02;;;;;;;14.98;9.25;;;13.40;99.90;;;;;;5064345;28;20048;-69
2022/04/13 01:06:29;;;;;;;22.17;10.23;;;13.40;99.90;;;;;;5070967;28;20040;-69
2022/04/13 01:08:55;;;;;;;;;;;13.40;99.90;;;;;;5059401;28;20162;-69
2022/04/13 01:11:21;;;;;;;21.00;9.30;;;13.30;99.90;;;;;;5061889;28;20605;-69
2022/04/13 01:13:47;;;;;;;;;;;13.30;99.90;;;;;;5065255;28;20141;-69
2022/04/13 01:16:13;;;;;;;16.80;8.57;;;13.20;99.90;;;;;;5061658;28;19978;-69
2022/04/13 01:18:38;;;;;;;20.10;9.73;;;13.20;99.90;;;;;;5060013;28;20044;-69
2022/04/13 01:21:05;;;;;;;17.83;10.05;;;13.20;99.90;;;;;;5033913;28;20037;-69
2022/04/13 01:23:31;;;;;;;18.33;9.95;;;13.20;99.90;;;;;;5059435;28;20052;-69
2022/04/13 01:25:57;;;;;;;19.40;10.68;;;13.20;99.90;;;;;;5063608;28;20049;-69
2022/04/13 01:28:23;;;;;;;20.80;11.03;;;13.10;99.90;;;;;;5059225;28;20071;-69
2022/04/13 01:30:49;;;;;;;16.70;9.10;;;13.10;99.90;;;;;;5061941;28;20397;-69
2022/04/13 01:33:15;;;;;;;15.90;9.57;;;13.10;99.90;;;;;;5058612;28;20392;-70
2022/04/13 01:35:41;;;;;;;20.60;10.05;;;13.00;99.90;;;;;;5060467;28;20346;-69
2022/04/13 01:38:07;;;;;;;19.60;10.38;;;13.00;99.90;;;;;;5057113;28;20041;-69
2022/04/13 01:40:33;;;;;;;19.70;10.80;;;13.00;99.90;;;;;;5061409;28;20070;-69
2022/04/13 01:42:58;;;;;;;21.90;11.20;;;13.00;99.90;;;;;;5063872;28;20066;-69
2022/04/13 01:45:27;;;;;;;22.60;10.73;;;13.00;99.90;;;;;;5070435;22;20587;-81
2022/04/13 01:47:52;;;;;;;20.10;10.60;;;13.00;99.90;;;;;;4983106;28;20052;-80
2022/04/13 01:50:19;;;;;;;22.83;11.27;;;13.00;99.90;;;;;;4984588;28;20061;-81
2022/04/13 01:52:47;;;;;;;16.95;9.60;;;13.00;99.90;;;;;;4972630;28;20036;-81
2022/04/13 01:55:13;;;;;;;20.88;9.77;;;13.00;99.90;;;;;;4997336;28;20040;-80
2022/04/13 01:57:39;;;;;;;;;;;13.10;99.90;;;;;;4979492;28;20041;-81
2022/04/13 02:00:10;;;;;;;19.42;9.88;;;13.00;99.90;;;;;;5012016;28;20400;-81
2022/04/13 02:02:39;;;;;;;21.83;10.98;;;13.00;99.90;;;;;;4990506;28;20100;-82
2022/04/13 02:05:05;;;;;;;18.42;9.82;;;13.00;99.90;;;;;;4975796;28;20432;-81
2022/04/13 02:07:41;;;;;;;17.25;9.88;;;13.00;99.90;;;;;;4996484;28;20224;-80
2022/04/13 02:10:09;;;;;;;22.23;10.50;;;13.00;99.90;;;;;;4979672;28;20467;-81
2022/04/13 02:12:35;;;;;;;18.20;9.57;;;13.00;99.90;;;;;;4977992;28;20369;-80
2022/04/13 02:15:07;;;;;;;24.05;10.07;;;13.00;99.90;;;;;;5010563;28;20056;-81
2022/04/13 02:17:38;;;;;;;19.52;10.38;;;13.00;99.90;;;;;;4981251;28;20076;-79
2022/04/13 02:20:07;;;;;;;17.10;10.25;;;13.00;99.90;;;;;;4980348;28;20037;-82
2022/04/13 02:22:38;;;;;;;17.80;10.45;;;12.90;99.90;;;;;;4983622;28;20041;-79
2022/04/13 02:25:06;;;;;;;17.73;10.32;;;12.90;99.90;;;;;;4984391;28;20088;-79
2022/04/13 02:27:37;;;;;;;19.38;10.18;;;13.00;99.90;;;;;;5003274;28;20120;-81
2022/04/13 02:30:11;;;;;;;22.15;10.93;;;12.90;99.90;;;;;;4982992;28;20440;-82
2022/04/13 02:32:38;;;;;;;20.55;9.85;;;12.80;99.90;;;;;;4975378;28;20132;-80
2022/04/13 02:35:07;;;;;;;23.58;10.18;;;12.90;99.90;;;;;;4996146;28;20045;-82
2022/04/13 02:37:36;;;;;;;18.25;9.70;;;12.90;99.90;;;;;;4979332;28;20116;-81
2022/04/13 02:40:10;;;;;;;22.23;11.18;;;12.90;99.90;;;;;;4997084;28;20068;-80
2022/04/13 02:42:36;;;;;;;20.63;10.30;;;12.80;99.90;;;;;;4999325;28;20081;-80
2022/04/13 02:45:10;;;;;;;21.80;10.80;;;12.80;99.90;;;;;;4972309;28;20384;-80
2022/04/13 02:47:36;;;;;;;22.88;11.50;;;12.80;99.90;;;;;;4996010;28;20133;-81
2022/04/13 02:50:03;;;;;;;18.88;10.75;;;12.80;99.90;;;;;;4977743;28;20519;-80
2022/04/13 02:52:30;;;;;;;18.02;10.77;;;12.80;99.90;;;;;;4992127;28;20658;-80
2022/04/13 02:54:57;;;;;;;26.52;11.13;;;12.70;99.90;;;;;;4994146;28;20223;-83
2022/04/13 02:57:23;;;;;;;22.90;11.43;;;12.70;99.90;;;;;;4980761;28;20049;-80
2022/04/13 02:59:51;;;;;;;22.77;10.88;;;12.70;99.90;;;;;;4979299;28;20050;-80
2022/04/13 03:02:18;;;;;;;20.33;10.65;;;12.60;99.90;;;;;;4995281;28;20073;-80
2022/04/13 03:04:46;;;;;;;22.35;10.60;;;12.60;99.90;;;;;;4980759;28;20054;-80
2022/04/13 03:07:14;;;;;;;18.83;10.27;;;12.60;99.90;;;;;;4995967;28;20042;-81
2022/04/13 03:09:40;;;;;;;18.27;9.13;;;12.50;99.90;;;;;;4978337;28;20457;-80
2022/04/13 03:12:07;;;;;;;24.40;10.57;;;12.50;99.90;;;;;;4977520;28;20064;-80
2022/04/13 03:14:33;;;;;;;23.08;11.07;;;12.50;99.90;;;;;;4980454;28;20519;-81
2022/04/13 03:16:59;;;;;;;19.83;10.50;;;12.50;99.90;;;;;;4980581;28;20037;-82
2022/04/13 03:19:24;;;;;;;21.48;10.95;;;12.40;99.90;;;;;;4990892;28;20046;-80
2022/04/13 03:21:51;;;;;;;18.73;9.63;;;12.40;99.90;;;;;;4979383;28;20053;-79
2022/04/13 03:24:26;;;;;;;22.83;12.00;;;12.40;99.90;;;;;;4981703;28;20544;-82
2022/04/13 03:26:52;;;;;;;21.02;11.57;;;12.30;99.90;;;;;;4982077;28;20038;-79
2022/04/13 03:29:18;;;;;;;19.85;11.13;;;12.30;99.90;;;;;;4982139;28;20512;-79
2022/04/13 03:31:44;;;;;;;18.38;10.55;;;12.30;99.90;;;;;;4995640;28;20351;-80
2022/04/13 03:34:10;;;;;;;29.43;12.17;;;12.30;99.90;;;;;;4996047;28;20510;-79
2022/04/13 03:36:41;;;;;;;24.90;11.75;;;12.20;99.90;;;;;;4994023;28;20211;-82
2022/04/13 03:39:08;;;;;;;24.08;12.43;;;12.20;99.90;;;;;;4996652;28;20045;-80
2022/04/13 03:41:37;;;;;;;18.38;10.88;;;12.20;99.90;;;;;;4994293;28;20038;-80
2022/04/13 03:44:09;;;;;;;19.15;11.55;;;12.20;99.90;;;;;;4980325;28;20037;-80
2022/04/13 03:46:38;;;;;;;20.50;10.60;;;12.20;99.90;;;;;;4996611;28;20100;-79
2022/04/13 03:49:10;;;;;;;19.85;10.65;;;12.20;99.90;;;;;;4982554;28;20061;-80
2022/04/13 03:51:41;;;;;;;22.85;11.80;;;12.10;99.90;;;;;;4997407;28;20096;-80
2022/04/13 03:54:09;;;;;;;20.33;11.18;;;12.10;99.90;;;;;;5002230;28;20044;-80
2022/04/13 03:56:38;;;;;;;22.40;11.65;;;12.10;99.90;;;;;;4983678;28;20064;-81
2022/04/13 03:59:07;;;;;;;20.70;10.70;;;12.10;99.90;;;;;;5000500;28;20042;-79
2022/04/13 04:01:36;;;;;;;20.88;11.95;;;12.10;99.90;;;;;;4983984;28;20049;-82
2022/04/13 04:04:11;;;;;;;22.08;11.90;;;12.00;99.90;;;;;;5000882;28;20037;-81
2022/04/13 04:06:39;;;;;;;19.23;10.77;;;12.10;99.90;;;;;;4998764;28;20778;-82
2022/04/13 04:09:08;;;;;;;23.23;12.00;;;12.10;99.90;;;;;;4981338;28;20084;-80
2022/04/13 04:11:37;;;;;;;21.63;10.20;;;12.10;99.90;;;;;;4994823;28;20048;-80
2022/04/13 04:14:10;;;;;;;25.90;11.48;;;12.10;99.90;;;;;;4999422;28;20140;-81
2022/04/13 04:16:39;;;;;;;25.17;12.07;;;12.10;99.90;;;;;;4977881;28;20045;-82
2022/04/13 04:19:08;;;;;;;23.15;10.63;;;12.10;99.90;;;;;;4997701;28;20042;-79
2022/04/13 04:21:39;;;;;;;23.38;11.80;;;12.10;99.90;;;;;;4991248;28;20069;-80
2022/04/13 04:24:08;;;;;;;26.45;12.77;;;12.00;99.90;;;;;;4982945;28;20034;-81
2022/04/13 04:26:34;;;;;;;23.48;11.90;;;12.00;99.90;;;;;;4998551;28;20042;-80
2022/04/13 04:29:08;;;;;;;25.85;11.57;;;12.00;99.90;;;;;;4984941;28;20080;-82
2022/04/13 04:31:56;;;;;;;24.52;11.60;;;12.00;99.90;;;;;;4982028;28;20135;-81
2022/04/13 04:34:26;;;;;;;23.35;11.13;;;12.00;99.90;;;;;;4977473;28;20042;-80
2022/04/13 04:36:52;;;;;;;20.42;10.65;;;12.00;99.90;;;;;;4981243;28;20042;-82
2022/04/13 04:39:19;;;;;;;21.60;11.27;;;12.00;99.90;;;;;;4984225;28;20100;-81
2022/04/13 04:41:50;;;;;;;21.88;11.70;;;11.90;99.90;;;;;;4980801;28;20124;-80
2022/04/13 04:44:18;;;;;;;28.10;12.35;;;12.00;99.90;;;;;;4992256;28;20082;-79
2022/04/13 04:46:54;;;;;;;25.02;11.18;;;12.00;99.90;;;;;;4981625;28;20049;-82
2022/04/13 04:49:19;;;;;;;28.77;11.15;;;12.00;99.90;;;;;;4996227;28;20125;-81
2022/04/13 04:51:47;;;;;;;18.63;10.13;;;12.00;99.90;;;;;;4984731;28;20120;-81
2022/04/13 04:54:16;;;;;;;24.65;12.38;;;12.10;99.90;;;;;;4995517;28;20123;-80
2022/04/13 04:56:44;;;;;;;21.80;10.80;;;12.00;99.90;;;;;;4981450;28;20571;-80
2022/04/13 04:59:10;;;;;;;24.02;11.88;;;12.10;99.90;;;;;;4998288;28;20284;-79
2022/04/13 05:01:38;;;;;;;18.77;11.10;;;12.00;99.90;;;;;;4982200;28;20084;-79
2022/04/13 05:04:07;;;;;;;25.83;12.23;;;12.10;99.90;;;;;;4981492;28;20404;-80
2022/04/13 05:06:36;;;;;;;23.77;13.50;;;12.00;99.90;;;;;;4982577;28;20038;-80
2022/04/13 05:09:07;;;;;;;29.67;12.98;;;12.10;99.90;;;;;;4979740;28;20153;-80
2022/04/13 05:11:33;;;;;;;29.08;13.50;;;12.00;99.90;;;;;;4996777;28;20034;-79
2022/04/13 05:14:07;;;;;;;21.00;11.60;;;12.00;99.90;;;;;;4982428;28;20088;-80
2022/04/13 05:16:43;;;;;;;24.23;12.63;;;12.20;99.90;;;;;;4981949;28;21778;-80
2022/04/13 05:19:09;;;;;;;23.40;12.55;;;12.00;99.90;;;;;;4976462;28;20068;-83
2022/04/13 05:21:38;;;;;;;28.70;13.90;;;12.10;99.90;;;;;;4976354;28;20050;-82
2022/04/13 05:24:07;;;;;;;28.23;12.50;;;12.00;99.90;;;;;;4983378;28;20423;-81
2022/04/13 05:26:39;;;;;;;28.88;13.35;;;12.00;99.90;;;;;;4978028;28;20058;-83
2022/04/13 05:29:08;;;;;;;26.58;13.18;;;12.10;99.90;;;;;;5001878;28;20316;-81
2022/04/13 05:31:41;;;;;;;27.65;13.55;;;12.10;99.90;;;;;;4983296;28;20452;-81
2022/04/13 05:34:11;;;;;;;32.95;14.02;;;12.10;99.90;;;;;;4976488;28;20052;-81
2022/04/13 05:36:37;;;;;;;28.75;14.75;;;12.10;99.90;;;;;;5001905;28;20512;-80
2022/04/13 05:39:09;;;;;;;19.83;12.17;;;12.10;99.90;;;;;;4994894;28;20042;-83
2022/04/13 05:41:42;;;;;;;26.13;12.88;;;12.10;99.90;;;;;;4981055;28;20124;-81
2022/04/13 05:44:13;;;;;;;26.95;13.93;;;12.20;99.90;;;;;;4985827;28;20321;-79
2022/04/13 05:46:43;;;;;;;27.08;13.88;;;12.20;99.90;;;;;;4983905;28;20092;-83
2022/04/13 05:49:11;;;;;;;25.42;13.70;;;12.20;99.90;;;;;;4981928;28;20383;-81
2022/04/13 05:51:39;;;;;;;29.13;14.13;;;12.20;99.90;;;;;;4991259;28;20037;-80
2022/04/13 05:54:07;;;;;;;27.55;12.70;;;12.30;99.90;;;;;;5016201;28;20756;-81
2022/04/13 05:56:42;;;;;;;22.65;13.63;;;12.20;99.90;;;;;;4986673;28;20041;-80
2022/04/13 05:59:16;;;;;;;28.40;13.77;;;12.30;99.90;;;;;;4997358;28;20081;-80
2022/04/13 06:01:45;;;;;;;25.30;13.13;;;12.30;99.90;;;;;;5000145;28;20038;-83
2022/04/13 06:04:11;;;;;;;25.38;13.38;;;12.30;99.90;;;;;;4995031;28;20313;-79
2022/04/13 06:06:47;;;;;;;23.77;13.63;;;12.40;99.90;;;;;;4987845;28;20038;-81
2022/04/13 06:09:13;;;;;;;24.92;13.48;;;12.50;99.90;;;;;;4998070;28;20751;-80
2022/04/13 06:11:41;;;;;;;30.70;13.27;;;12.40;99.90;;;;;;4992972;28;20046;-82
2022/04/13 06:14:07;;;;;;;24.35;12.93;;;12.50;99.90;;;;;;4986542;28;20379;-83
2022/04/13 06:16:43;;;;;;;30.95;13.80;;;12.50;99.90;;;;;;4983937;28;20375;-84
2022/04/13 06:19:18;;;;;;;26.40;12.52;;;12.50;99.90;;;;;;4982273;28;20041;-80
2022/04/13 06:21:50;;;;;;;22.52;12.02;;;12.60;99.90;;;;;;4982164;28;20041;-81
2022/04/13 06:24:16;;;;;;;24.88;12.45;;;12.60;99.90;;;;;;4986610;28;20141;-81
2022/04/13 06:26:42;;;;;;;23.67;12.13;;;12.60;99.90;;;;;;4981409;28;20085;-81
2022/04/13 06:29:25;;;;;;;29.77;13.82;;;12.70;99.90;;;;;;4995812;28;20044;-82
2022/04/13 06:31:57;;;;;;;27.70;12.45;;;12.70;99.90;;;;;;4992849;28;20077;-80
2022/04/13 06:34:22;;;;;;;26.98;12.70;;;12.70;99.90;;;;;;4998626;28;20770;-80
2022/04/13 06:36:48;;;;;;;24.35;12.60;;;12.70;99.90;;;;;;4996104;28;20050;-80
2022/04/13 06:39:19;;;;;;;25.40;12.80;;;12.70;99.90;;;;;;4982922;28;20045;-81
2022/04/13 06:41:45;;;;;;;25.23;12.25;;;12.80;99.90;;;;;;4978065;28;20443;-79
2022/04/13 06:44:16;;;;;;;24.30;12.77;;;12.80;99.90;;;;;;4977230;28;20050;-82
2022/04/13 06:46:45;;;;;;;21.50;11.00;;;12.80;99.90;;;;;;4991736;28;20421;-81
2022/04/13 06:49:13;;;;;;;22.00;11.63;;;12.90;99.90;;;;;;4975472;28;20388;-82
2022/04/13 06:51:41;;;;;;;20.65;11.88;;;12.90;99.90;;;;;;4998467;28;20042;-80
2022/04/13 06:54:07;;;;;;;19.67;11.25;;;12.90;99.90;;;;;;4972574;28;20046;-81
2022/04/13 06:56:39;;;;;;;19.52;10.07;;;13.00;99.90;;;;;;4997425;28;20050;-80
2022/04/13 06:59:07;;;;;;;20.23;11.27;;;13.10;99.90;;;;;;4994880;28;20140;-80
2022/04/13 07:01:34;;;;;;;27.70;11.27;;;13.10;99.90;;;;;;4975349;28;20034;-82
2022/04/13 07:04:08;;;;;;;22.23;10.80;;;13.20;99.90;;;;;;4976110;28;20467;-80
2022/04/13 07:06:45;;;;;;;26.40;10.82;;;13.20;99.90;;;;;;4996863;28;20319;-80
2022/04/13 07:09:11;;;;;;;22.02;9.95;;;13.30;99.90;;;;;;4995514;28;20080;-81
2022/04/13 07:11:39;;;;;;;21.67;10.23;;;13.40;99.90;;;;;;4981634;28;20117;-82
2022/04/13 07:14:08;;;;;;;19.77;9.93;;;13.40;99.90;;;;;;4995099;28;20038;-81
2022/04/13 07:16:36;;;;;;;18.25;8.80;;;13.50;99.90;;;;;;4988386;28;20042;-83
2022/04/13 07:19:22;;;;;;;17.58;9.45;;;13.40;99.90;;;;;;5000395;28;20097;-82
2022/04/13 07:21:51;;;;;;;17.33;8.98;;;13.50;99.90;;;;;;4963424;28;20058;-81
2022/04/13 07:24:35;;;;;;;16.40;9.32;;;13.60;99.90;;;;;;4978327;28;20140;-82
2022/04/13 07:27:23;;;;;;;22.60;10.43;;;13.60;99.90;;;;;;4983432;28;20046;-82
2022/04/13 07:29:51;;;;;;;19.55;8.70;;;13.60;99.90;;;;;;4981989;28;20108;-82
2022/04/13 07:32:24;;;;;;;18.02;8.52;;;13.70;99.90;;;;;;5004503;28;20030;-81
2022/04/13 07:34:55;;;;;;;20.02;9.27;;;13.70;99.90;;;;;;4999504;28;20057;-82
2022/04/13 07:37:40;;;;;;;20.60;8.73;;;13.70;99.90;;;;;;5006376;28;20096;-84
2022/04/13 07:40:29;;;;;;;17.70;9.15;;;13.80;99.90;;;;;;4983104;28;20046;-83
2022/04/13 07:42:55;;;;;;;16.95;7.93;;;13.80;99.90;;;;;;4999689;28;20042;-82
2022/04/13 07:45:31;;;;;;;18.83;8.95;;;13.80;99.90;;;;;;5082845;22;20110;-68
2022/04/13 07:47:57;;;;;;;19.38;9.00;;;13.80;99.90;;;;;;5032055;28;20632;-68
2022/04/13 07:50:23;;;;;;;15.55;9.02;;;13.80;99.90;;;;;;5026968;28;20044;-69
2022/04/13 07:52:49;;;;;;;17.07;8.53;;;13.80;99.90;;;;;;5033915;28;20512;-69
2022/04/13 07:55:14;;;;;;;17.07;9.30;;;13.90;99.90;;;;;;5036177;28;20280;-69
2022/04/13 07:57:40;;;;;;;20.10;9.10;;;13.90;99.90;;;;;;5035216;28;20138;-69
2022/04/13 08:00:09;;;;;;;21.17;9.40;;;13.90;99.90;;;;;;5041219;28;20144;-69
2022/04/13 08:02:36;;;;;;;25.02;8.45;;;13.90;99.90;;;;;;5039101;28;20099;-69
2022/04/13 08:05:02;;;;;;;13.63;8.40;;;14.00;99.90;;;;;;5041734;28;20453;-69
2022/04/13 08:07:28;;;;;;;17.35;8.10;;;14.10;99.90;;;;;;5033051;28;20067;-69
2022/04/13 08:09:53;;;;;;;22.08;9.38;;;14.10;99.90;;;;;;5034982;28;20448;-69
2022/04/13 08:12:19;;;;;;;24.00;9.50;;;14.20;99.90;;;;;;5032613;28;20488;-69
2022/04/13 08:14:49;;;;;;;20.87;8.63;;;14.30;99.90;;;;;;5034891;28;20061;-69
2022/04/13 08:17:15;;;;;;;21.15;8.60;;;14.40;99.90;;;;;;5033218;28;20045;-68
2022/04/13 08:19:42;;;;;;;18.52;8.10;;;14.50;99.90;;;;;;5031566;28;20036;-69
2022/04/13 08:22:08;;;;;;;13.85;8.23;;;14.60;99.90;;;;;;5033114;28;20468;-69
2022/04/13 08:24:34;;;;;;;19.92;8.85;;;14.60;99.90;;;;;;5037582;28;20039;-69
2022/04/13 08:26:59;;;;;;;19.40;8.43;;;14.60;99.90;;;;;;5034470;28;20144;-70
2022/04/13 08:29:26;;;;;;;15.32;8.30;;;14.70;99.90;;;;;;5036600;28;20059;-69
2022/04/13 08:31:51;;;;;;;19.85;8.70;;;14.70;99.90;;;;;;5035187;28;20078;-70
2022/04/13 08:34:17;;;;;;;18.43;8.43;;;14.80;99.90;;;;;;5044957;28;20063;-69
2022/04/13 08:36:42;;;;;;;17.37;8.73;;;14.80;99.90;;;;;;5042920;28;20297;-69
2022/04/13 08:39:13;;;;;;;25.70;9.93;;;14.70;99.90;;;;;;5044848;28;20047;-69
2022/04/13 08:41:55;;;;;;;14.85;9.18;;;14.60;99.90;;;;;;5035468;28;20059;-69
2022/04/13 08:44:36;;;;;;;20.98;9.88;;;14.60;99.90;;;;;;5030628;28;20073;-70
2022/04/13 08:47:07;;;;;;;21.15;9.60;;;14.60;99.90;;;;;;5033210;28;20045;-70
2022/04/13 08:49:34;;;;;;;16.80;10.80;;;14.60;99.90;;;;;;5032996;28;20816;-70
2022/04/13 08:52:03;;;;;;;21.88;10.52;;;14.60;99.90;;;;;;5036191;28;20201;-70
2022/04/13 08:54:32;;;;;;;17.02;9.50;;;14.70;99.90;;;;;;5038335;28;20493;-69
2022/04/13 08:56:58;;;;;;;18.58;10.02;;;14.70;99.90;;;;;;5034965;28;20383;-70
2022/04/13 09:00:02;;;;;;;21.65;10.52;;;14.80;99.90;;;;;;5034914;28;20155;-69
2022/04/13 09:03:00;;;;;;;19.63;10.65;;;14.90;99.90;;;;;;5035488;28;20551;-69
2022/04/13 09:05:32;;;;;;;12.88;7.72;;;15.00;99.90;;;;;;5041538;28;20409;-70
2022/04/13 09:08:02;;;;;;;16.15;8.75;;;15.10;99.90;;;;;;5044119;28;20041;-69
2022/04/13 09:10:29;;;;;;;18.70;9.85;;;15.30;99.90;;;;;;5038133;28;20116;-70
2022/04/13 09:12:56;;;;;;;13.90;8.95;;;15.40;99.90;;;;;;5040470;28;20044;-69
2022/04/13 09:15:23;;;;;;;19.92;9.15;;;15.60;99.90;;;;;;5043257;28;20029;-69
2022/04/13 09:17:50;;;;;;;18.10;8.88;;;15.70;99.90;;;;;;5043463;28;20478;-70
2022/04/13 09:20:17;;;;;;;17.13;8.73;;;15.70;99.90;;;;;;5038624;28;20060;-70
2022/04/13 09:22:43;;;;;;;20.23;8.32;;;15.80;99.90;;;;;;5028875;28;20572;-70
2022/04/13 09:25:09;;;;;;;15.70;8.48;;;16.00;99.90;;;;;;5038723;28;20048;-70
2022/04/13 09:27:37;;;;;;;13.88;7.18;;;16.10;99.90;;;;;;5036520;28;20034;-70
2022/04/13 09:30:04;;;;;;;15.68;7.07;;;16.10;99.90;;;;;;5032729;28;20034;-70
2022/04/13 09:32:31;;;;;;;15.20;6.68;;;16.20;99.90;;;;;;5035342;28;20045;-70
2022/04/13 09:34:57;;;;;;;14.73;6.60;;;16.30;99.90;;;;;;5021715;28;20069;-70
2022/04/13 09:37:24;;;;;;;15.05;6.55;;;16.30;99.90;;;;;;5016294;28;20486;-69
2022/04/13 09:39:50;;;;;;;14.43;7.20;;;16.50;99.90;;;;;;5032015;28;20523;-70
2022/04/13 09:42:15;;;;;;;15.02;7.13;;;16.60;99.90;;;;;;5041147;28;20037;-70
2022/04/13 09:44:42;;;;;;;18.48;7.93;;;16.70;99.90;;;;;;5043503;28;20493;-70
2022/04/13 09:47:11;;;;;;;;;;;16.80;99.90;;;;;;5039199;28;20444;-70
2022/04/13 09:49:52;;;;;;;13.00;6.47;;;16.80;99.90;;;;;;5044602;28;20836;-70
2022/04/13 09:52:20;;;;;;;9.38;5.10;;;16.90;99.90;;;;;;5037429;28;20037;-69
2022/04/13 09:54:46;;;;;;;11.40;5.82;;;17.00;99.90;;;;;;5045967;28;20045;-69
2022/04/13 09:57:25;;;;;;;10.98;4.82;;;17.10;99.90;;;;;;5042010;28;20041;-70
2022/04/13 09:59:59;;;;;;;12.85;5.15;;;17.40;99.90;;;;;;5034496;28;20442;-70
2022/04/13 10:02:38;;;;;;;13.60;5.88;;;17.60;99.90;;;;;;5037451;28;20148;-70
2022/04/13 10:05:05;;;;;;;11.43;6.20;;;17.70;99.90;;;;;;5039997;28;20037;-70
2022/04/13 10:07:31;;;;;;;11.68;5.03;;;17.80;99.90;;;;;;5039427;28;20474;-70
2022/04/13 10:09:57;;;;;;;14.73;5.60;;;17.70;99.90;;;;;;5029194;28;20045;-70
2022/04/13 10:12:23;;;;;;;13.68;5.03;;;17.70;99.90;;;;;;5024790;28;20429;-70
2022/04/13 10:14:48;;;;;;;14.10;6.05;;;17.60;99.90;;;;;;5032905;28;20175;-69
2022/04/13 10:17:16;;;;;;;8.77;4.80;;;17.60;99.90;;;;;;5037965;28;20126;-70
2022/04/13 10:19:57;;;;;;;12.55;5.07;;;17.70;99.90;;;;;;5024787;28;20049;-70
2022/04/13 10:22:23;;;;;;;10.07;4.82;;;17.70;99.90;;;;;;5036460;28;20047;-70
2022/04/13 10:24:48;;;;;;;12.20;7.07;;;17.70;99.90;;;;;;5032894;28;20045;-70
2022/04/13 10:27:19;;;;;;;12.88;5.60;;;17.70;99.90;;;;;;5035452;28;20037;-70
2022/04/13 10:29:49;;;;;;;11.88;5.43;;;17.80;99.90;;;;;;5036451;28;20032;-70
2022/04/13 10:32:35;;;;;;;13.45;5.38;;;17.80;99.90;;;;;;5038826;28;20033;-70
2022/04/13 10:35:03;;;;;;;9.90;5.60;;;17.70;99.90;;;;;;5028902;28;20257;-70
2022/04/13 10:37:29;;;;;;;11.13;5.00;;;17.50;99.90;;;;;;5029453;28;20080;-70
2022/04/13 10:39:58;;;;;;;12.18;5.68;;;17.40;99.90;;;;;;5032839;28;20037;-70
2022/04/13 10:42:25;;;;;;;9.20;4.50;;;17.40;99.90;;;;;;5029328;28;20049;-70
2022/04/13 10:44:55;;;;;;;12.93;5.10;;;17.20;99.90;;;;;;5031006;28;20441;-70
2022/04/13 10:47:51;;;;;;;11.65;5.43;;;17.20;99.90;;;;;;5040357;28;20089;-70
2022/04/13 10:50:24;;;;;;;16.30;6.22;;;17.20;99.90;;;;;;5036521;28;20107;-70
2022/04/13 10:52:55;;;;;;;14.05;5.15;;;17.40;99.90;;;;;;5034200;28;20370;-70
2022/04/13 10:55:22;;;;;;;13.85;5.45;;;17.30;99.90;;;;;;5034738;28;20043;-70
2022/04/13 10:58:05;;;;;;;13.50;5.05;;;17.50;99.90;;;;;;5042223;28;20397;-70
2022/04/13 11:00:34;;;;;;;10.13;4.78;;;17.50;99.90;;;;;;5034590;28;20074;-70
2022/04/13 11:03:03;;;;;;;11.85;4.97;;;17.60;99.90;;;;;;5038733;28;20082;-71
2022/04/13 11:05:30;;;;;;;13.77;4.90;;;17.50;99.90;;;;;;5038083;28;20053;-71
2022/04/13 11:08:10;;;;;;;11.68;4.95;;;17.50;99.90;;;;;;5035651;28;20701;-70
2022/04/13 11:10:37;;;;;;;14.43;4.72;;;17.40;99.90;;;;;;5031974;28;20161;-69
2022/04/13 11:13:03;;;;;;;9.20;4.93;;;17.30;99.90;;;;;;5030815;28;20045;-70
2022/04/13 11:15:43;;;;;;;12.35;5.03;;;17.20;99.90;;;;;;5029174;28;20505;-69
2022/04/13 11:18:13;;;;;;;13.52;5.75;;;17.20;99.90;;;;;;5037392;28;20115;-69
2022/04/13 11:21:06;;;;;;;16.33;6.50;;;17.10;99.90;;;;;;5020174;28;21153;-69
2022/04/13 11:24:06;;;;;;;12.15;4.95;;;16.90;99.90;;;;;;5028047;28;20086;-70
2022/04/13 11:26:35;;;;;;;10.32;5.45;;;16.80;99.90;;;;;;4953343;28;20094;-69
2022/04/13 11:29:09;;;;;;;12.27;6.03;;;16.80;99.90;;;;;;5021101;28;20424;-69
2022/04/13 11:32:00;;;;;;;14.63;5.03;;;16.80;99.90;;;;;;5041370;28;20377;-68
2022/04/13 11:34:52;;;;;;;18.63;6.35;;;16.70;99.90;;;;;;5032728;28;20135;-69
2022/04/13 11:37:26;;;;;;;12.15;4.97;;;16.70;99.90;;;;;;5043163;28;20048;-69
2022/04/13 11:40:03;;;;;;;14.30;4.68;;;16.60;99.90;;;;;;5032649;28;20037;-68
2022/04/13 11:42:48;;;;;;;12.60;4.05;;;16.50;99.90;;;;;;5042353;28;20040;-68
2022/04/13 11:45:15;;;;;;;10.40;4.03;;;16.50;99.90;;;;;;5018963;28;20410;-69
2022/04/13 11:47:58;;;;;;;8.60;3.75;;;16.40;99.90;;;;;;5043064;28;20080;-69
2022/04/13 11:50:36;;;;;;;10.75;3.72;;;16.30;99.90;;;;;;5029125;28;20037;-70
2022/04/13 11:53:05;;;;;;;9.63;3.85;;;16.10;99.90;;;;;;5032736;28;20064;-70
2022/04/13 11:55:37;;;;;;;10.65;3.30;;;15.90;99.90;;;;;;5037516;28;20037;-69
2022/04/13 11:58:09;;;;;;;11.45;4.53;;;15.90;99.90;;;;;;5030709;28;20103;-69
2022/04/13 12:00:37;;;;;;;12.40;4.40;;;15.80;99.90;;;;;;5032926;28;20037;-69
2022/04/13 12:03:06;;;;;;;11.90;4.88;;;15.80;99.90;;;;;;5037294;28;20672;-70
2022/04/13 12:05:34;;;;;;;15.43;4.68;;;15.70;99.90;;;;;;5035318;28;20180;-69
2022/04/13 12:08:00;;;;;;;14.90;5.88;;;15.70;99.90;;;;;;5031651;28;20128;-70
2022/04/13 12:10:36;;;;;;;16.27;5.45;;;15.70;99.90;;;;;;5035033;28;20148;-69
2022/04/13 12:13:03;;;;;;;14.50;6.15;;;15.70;99.90;;;;;;5043314;28;20091;-69
2022/04/13 12:15:47;;;;;;;16.05;6.07;;;15.70;99.90;;;;;;5044077;28;20037;-69
2022/04/13 12:18:13;;;;;;;13.00;6.10;;;15.60;99.90;;;;;;5045260;28;20040;-69
2022/04/13 12:20:40;;;;;;;12.27;6.10;;;15.60;99.90;;;;;;5029218;28;20044;-69
2022/04/13 12:23:27;;;;;;;21.40;7.55;;;15.60;99.90;;;;;;5035143;28;20035;-69
2022/04/13 12:25:54;;;;;;;15.57;6.50;;;15.60;99.90;;;;;;5042570;28;20123;-69
2022/04/13 12:28:22;;;;;;;17.25;6.20;;;15.70;99.90;;;;;;5038001;28;20134;-69
2022/04/13 12:31:14;;;;;;;12.57;6.80;;;15.60;99.90;;;;;;5047398;28;20033;-69
2022/04/13 12:33:40;;;;;;;12.05;6.50;;;15.70;99.90;;;;;;5034850;28;20134;-71
2022/04/13 12:36:10;;;;;;;16.15;6.40;;;15.70;99.90;;;;;;5035860;28;20059;-69
2022/04/13 12:38:54;;;;;;;15.00;6.30;;;15.70;99.90;;;;;;5039438;28;20051;-69
2022/04/13 12:41:21;;;;;;;11.90;6.18;;;15.70;99.90;;;;;;5035761;28;20049;-70
2022/04/13 12:43:57;;;;;;;10.80;6.47;;;15.70;99.90;;;;;;5043196;28;20412;-69
2022/04/13 12:46:24;;;;;;;13.38;5.65;;;15.70;99.90;;;;;;5038281;28;20067;-70